sensor_id;sensor_type;location;lat;lon;timestamp;P1;durP1;ratioP1;P2;durP2;ratioP2
48813;SDS011;34634;44.108;3.074;2023-05-10T00:01:00;7.57;;;1.27;;
48813;SDS011;34634;44.108;3.074;2023-05-10T00:03:27;5.55;;;1.30;;
48813;SDS011;34634;44.108;3.074;2023-05-10T00:05:54;13.80;;;1.42;;
48813;SDS011;34634;44.108;3.074;2023-05-10T00:08:20;7.00;;;1.50;;
48813;SDS011;34634;44.108;3.074;2023-05-10T00:10:46;7.43;;;1.08;;
48813;SDS011;34634;44.108;3.074;2023-05-10T00:13:13;6.43;;;1.40;;
48813;SDS011;34634;44.108;3.074;2023-05-10T00:15:39;11.73;;;1.40;;
48813;SDS011;34634;44.108;3.074;2023-05-10T00:18:05;7.55;;;1.70;;
48813;SDS011;34634;44.108;3.074;2023-05-10T00:20:32;10.02;;;1.63;;
48813;SDS011;34634;44.108;3.074;2023-05-10T00:22:58;7.35;;;1.30;;
48813;SDS011;34634;44.108;3.074;2023-05-10T00:25:24;12.73;;;1.55;;
48813;SDS011;34634;44.108;3.074;2023-05-10T00:27:51;7.25;;;1.30;;
48813;SDS011;34634;44.108;3.074;2023-05-10T00:30:17;8.27;;;1.90;;
48813;SDS011;34634;44.108;3.074;2023-05-10T00:32:44;10.90;;;1.67;;
48813;SDS011;34634;44.108;3.074;2023-05-10T00:35:10;5.25;;;1.10;;
48813;SDS011;34634;44.108;3.074;2023-05-10T00:37:36;6.65;;;1.40;;
48813;SDS011;34634;44.108;3.074;2023-05-10T00:40:03;7.30;;;1.23;;
48813;SDS011;34634;44.108;3.074;2023-05-10T00:42:30;7.70;;;1.25;;
48813;SDS011;34634;44.108;3.074;2023-05-10T00:44:56;7.22;;;1.35;;
48813;SDS011;34634;44.108;3.074;2023-05-10T00:47:23;8.57;;;1.45;;
48813;SDS011;34634;44.108;3.074;2023-05-10T00:49:49;5.60;;;1.40;;
48813;SDS011;34634;44.108;3.074;2023-05-10T00:52:15;12.32;;;1.77;;
48813;SDS011;34634;44.108;3.074;2023-05-10T00:54:42;8.68;;;1.48;;
48813;SDS011;34634;44.108;3.074;2023-05-10T00:57:08;6.47;;;1.60;;
48813;SDS011;34634;44.108;3.074;2023-05-10T00:59:35;8.35;;;2.00;;
48813;SDS011;34634;44.108;3.074;2023-05-10T01:02:01;10.45;;;1.83;;
48813;SDS011;34634;44.108;3.074;2023-05-10T01:04:27;11.10;;;2.13;;
48813;SDS011;34634;44.108;3.074;2023-05-10T01:06:54;6.32;;;1.48;;
48813;SDS011;34634;44.108;3.074;2023-05-10T01:09:20;6.45;;;1.77;;
48813;SDS011;34634;44.108;3.074;2023-05-10T01:11:47;6.53;;;1.92;;
48813;SDS011;34634;44.108;3.074;2023-05-10T01:14:14;12.00;;;1.75;;
48813;SDS011;34634;44.108;3.074;2023-05-10T01:16:41;10.15;;;1.75;;
48813;SDS011;34634;44.108;3.074;2023-05-10T01:19:12;8.80;;;2.13;;
48813;SDS011;34634;44.108;3.074;2023-05-10T01:30:05;10.27;;;2.10;;
48813;SDS011;34634;44.108;3.074;2023-05-10T01:35:47;11.52;;;2.45;;
48813;SDS011;34634;44.108;3.074;2023-05-10T01:37:52;13.13;;;2.70;;
48813;SDS011;34634;44.108;3.074;2023-05-10T01:40:26;18.05;;;2.05;;
48813;SDS011;34634;44.108;3.074;2023-05-10T01:42:55;9.73;;;1.80;;
48813;SDS011;34634;44.108;3.074;2023-05-10T01:45:47;19.58;;;2.20;;
48813;SDS011;34634;44.108;3.074;2023-05-10T01:48:10;7.53;;;1.80;;
48813;SDS011;34634;44.108;3.074;2023-05-10T01:50:38;9.20;;;1.70;;
48813;SDS011;34634;44.108;3.074;2023-05-10T01:53:06;8.93;;;1.95;;
48813;SDS011;34634;44.108;3.074;2023-05-10T01:55:43;11.07;;;1.92;;
48813;SDS011;34634;44.108;3.074;2023-05-10T01:58:13;9.23;;;1.90;;
48813;SDS011;34634;44.108;3.074;2023-05-10T02:00:40;13.60;;;2.33;;
48813;SDS011;34634;44.108;3.074;2023-05-10T02:03:08;10.90;;;2.13;;
48813;SDS011;34634;44.108;3.074;2023-05-10T02:05:36;11.77;;;2.30;;
48813;SDS011;34634;44.108;3.074;2023-05-10T02:08:05;9.95;;;2.25;;
48813;SDS011;34634;44.108;3.074;2023-05-10T02:10:35;13.65;;;2.40;;
48813;SDS011;34634;44.108;3.074;2023-05-10T02:13:02;11.73;;;2.20;;
48813;SDS011;34634;44.108;3.074;2023-05-10T02:15:28;14.40;;;2.75;;
48813;SDS011;34634;44.108;3.074;2023-05-10T02:17:55;11.18;;;2.20;;
48813;SDS011;34634;44.108;3.074;2023-05-10T02:20:23;11.48;;;2.58;;
48813;SDS011;34634;44.108;3.074;2023-05-10T02:22:51;9.00;;;1.95;;
48813;SDS011;34634;44.108;3.074;2023-05-10T02:25:19;10.35;;;2.28;;
48813;SDS011;34634;44.108;3.074;2023-05-10T02:27:46;9.25;;;2.03;;
48813;SDS011;34634;44.108;3.074;2023-05-10T02:30:13;10.38;;;2.17;;
48813;SDS011;34634;44.108;3.074;2023-05-10T02:32:40;10.73;;;2.08;;
48813;SDS011;34634;44.108;3.074;2023-05-10T02:35:08;8.05;;;1.25;;
48813;SDS011;34634;44.108;3.074;2023-05-10T02:37:34;11.63;;;2.05;;
48813;SDS011;34634;44.108;3.074;2023-05-10T02:40:02;11.25;;;2.05;;
48813;SDS011;34634;44.108;3.074;2023-05-10T02:42:29;15.02;;;2.28;;
48813;SDS011;34634;44.108;3.074;2023-05-10T02:44:59;10.82;;;1.73;;
48813;SDS011;34634;44.108;3.074;2023-05-10T02:47:26;11.07;;;1.92;;
48813;SDS011;34634;44.108;3.074;2023-05-10T02:49:52;12.02;;;1.92;;
48813;SDS011;34634;44.108;3.074;2023-05-10T02:52:21;11.05;;;2.50;;
48813;SDS011;34634;44.108;3.074;2023-05-10T02:54:49;13.50;;;2.20;;
48813;SDS011;34634;44.108;3.074;2023-05-10T02:57:16;16.20;;;2.40;;
48813;SDS011;34634;44.108;3.074;2023-05-10T02:59:44;13.13;;;2.13;;
48813;SDS011;34634;44.108;3.074;2023-05-10T03:02:12;9.68;;;1.98;;
48813;SDS011;34634;44.108;3.074;2023-05-10T03:04:38;10.25;;;2.30;;
48813;SDS011;34634;44.108;3.074;2023-05-10T03:07:05;10.75;;;1.75;;
48813;SDS011;34634;44.108;3.074;2023-05-10T03:09:31;13.20;;;2.30;;
48813;SDS011;34634;44.108;3.074;2023-05-10T03:12:15;8.40;;;1.65;;
48813;SDS011;34634;44.108;3.074;2023-05-10T03:17:19;7.70;;;1.83;;
48813;SDS011;34634;44.108;3.074;2023-05-10T03:19:48;10.90;;;2.15;;
48813;SDS011;34634;44.108;3.074;2023-05-10T03:22:20;12.23;;;2.20;;
48813;SDS011;34634;44.108;3.074;2023-05-10T03:27:14;9.15;;;2.45;;
48813;SDS011;34634;44.108;3.074;2023-05-10T03:29:40;10.85;;;1.67;;
48813;SDS011;34634;44.108;3.074;2023-05-10T03:32:07;8.70;;;1.95;;
48813;SDS011;34634;44.108;3.074;2023-05-10T03:34:33;13.55;;;2.88;;
48813;SDS011;34634;44.108;3.074;2023-05-10T03:37:01;14.77;;;2.28;;
48813;SDS011;34634;44.108;3.074;2023-05-10T03:39:27;9.20;;;1.65;;
48813;SDS011;34634;44.108;3.074;2023-05-10T03:41:54;12.80;;;2.45;;
48813;SDS011;34634;44.108;3.074;2023-05-10T03:44:20;13.23;;;2.30;;
48813;SDS011;34634;44.108;3.074;2023-05-10T03:46:46;8.23;;;1.55;;
48813;SDS011;34634;44.108;3.074;2023-05-10T03:49:12;9.18;;;1.80;;
48813;SDS011;34634;44.108;3.074;2023-05-10T03:51:39;13.57;;;1.80;;
48813;SDS011;34634;44.108;3.074;2023-05-10T03:54:05;10.15;;;2.10;;
48813;SDS011;34634;44.108;3.074;2023-05-10T03:56:32;5.82;;;1.90;;
48813;SDS011;34634;44.108;3.074;2023-05-10T03:58:58;7.45;;;1.77;;
48813;SDS011;34634;44.108;3.074;2023-05-10T04:01:24;9.95;;;1.88;;
48813;SDS011;34634;44.108;3.074;2023-05-10T04:03:51;8.38;;;1.83;;
48813;SDS011;34634;44.108;3.074;2023-05-10T04:06:17;6.75;;;1.63;;
48813;SDS011;34634;44.108;3.074;2023-05-10T04:08:43;8.57;;;1.98;;
48813;SDS011;34634;44.108;3.074;2023-05-10T04:11:10;6.35;;;1.30;;
48813;SDS011;34634;44.108;3.074;2023-05-10T04:13:38;10.20;;;1.83;;
48813;SDS011;34634;44.108;3.074;2023-05-10T04:16:04;7.15;;;1.67;;
48813;SDS011;34634;44.108;3.074;2023-05-10T04:18:30;5.82;;;1.17;;
48813;SDS011;34634;44.108;3.074;2023-05-10T04:20:57;3.92;;;1.50;;
48813;SDS011;34634;44.108;3.074;2023-05-10T04:23:23;5.18;;;0.82;;
48813;SDS011;34634;44.108;3.074;2023-05-10T04:25:49;6.72;;;0.90;;
48813;SDS011;34634;44.108;3.074;2023-05-10T04:28:16;6.55;;;1.33;;
48813;SDS011;34634;44.108;3.074;2023-05-10T04:30:42;6.55;;;1.00;;
48813;SDS011;34634;44.108;3.074;2023-05-10T04:33:08;4.25;;;1.20;;
48813;SDS011;34634;44.108;3.074;2023-05-10T04:35:35;7.72;;;1.35;;
48813;SDS011;34634;44.108;3.074;2023-05-10T04:38:01;5.60;;;1.10;;
48813;SDS011;34634;44.108;3.074;2023-05-10T04:40:27;5.88;;;1.25;;
48813;SDS011;34634;44.108;3.074;2023-05-10T04:42:54;5.38;;;1.13;;
48813;SDS011;34634;44.108;3.074;2023-05-10T04:45:20;6.43;;;1.40;;
48813;SDS011;34634;44.108;3.074;2023-05-10T04:47:47;6.53;;;1.48;;
48813;SDS011;34634;44.108;3.074;2023-05-10T04:50:13;9.43;;;1.85;;
48813;SDS011;34634;44.108;3.074;2023-05-10T04:52:40;9.57;;;1.67;;
48813;SDS011;34634;44.108;3.074;2023-05-10T04:55:07;7.55;;;1.52;;
48813;SDS011;34634;44.108;3.074;2023-05-10T04:57:34;11.57;;;1.40;;
48813;SDS011;34634;44.108;3.074;2023-05-10T05:00:01;6.78;;;1.50;;
48813;SDS011;34634;44.108;3.074;2023-05-10T05:02:27;8.95;;;1.60;;
48813;SDS011;34634;44.108;3.074;2023-05-10T05:04:55;7.05;;;1.58;;
48813;SDS011;34634;44.108;3.074;2023-05-10T05:07:23;10.88;;;1.50;;
48813;SDS011;34634;44.108;3.074;2023-05-10T05:09:49;4.32;;;1.52;;
48813;SDS011;34634;44.108;3.074;2023-05-10T05:12:15;9.55;;;1.35;;
48813;SDS011;34634;44.108;3.074;2023-05-10T05:14:42;8.02;;;1.55;;
48813;SDS011;34634;44.108;3.074;2023-05-10T05:17:08;9.02;;;1.75;;
48813;SDS011;34634;44.108;3.074;2023-05-10T05:19:35;6.65;;;1.52;;
48813;SDS011;34634;44.108;3.074;2023-05-10T05:22:01;9.55;;;1.50;;
48813;SDS011;34634;44.108;3.074;2023-05-10T05:24:27;10.75;;;2.00;;
48813;SDS011;34634;44.108;3.074;2023-05-10T05:26:53;8.98;;;1.60;;
48813;SDS011;34634;44.108;3.074;2023-05-10T05:29:20;8.27;;;1.70;;
48813;SDS011;34634;44.108;3.074;2023-05-10T05:31:46;9.10;;;1.70;;
48813;SDS011;34634;44.108;3.074;2023-05-10T05:34:12;8.80;;;1.38;;
48813;SDS011;34634;44.108;3.074;2023-05-10T05:36:39;8.60;;;1.45;;
48813;SDS011;34634;44.108;3.074;2023-05-10T05:39:05;7.25;;;1.60;;
48813;SDS011;34634;44.108;3.074;2023-05-10T05:41:31;7.15;;;1.45;;
48813;SDS011;34634;44.108;3.074;2023-05-10T05:43:58;7.35;;;1.77;;
48813;SDS011;34634;44.108;3.074;2023-05-10T05:46:24;6.65;;;1.50;;
48813;SDS011;34634;44.108;3.074;2023-05-10T05:48:50;7.07;;;1.50;;
48813;SDS011;34634;44.108;3.074;2023-05-10T05:51:16;6.03;;;1.38;;
48813;SDS011;34634;44.108;3.074;2023-05-10T05:53:43;6.10;;;1.58;;
48813;SDS011;34634;44.108;3.074;2023-05-10T05:56:09;6.25;;;1.33;;
48813;SDS011;34634;44.108;3.074;2023-05-10T05:58:35;8.32;;;1.42;;
48813;SDS011;34634;44.108;3.074;2023-05-10T06:01:02;9.35;;;1.63;;
48813;SDS011;34634;44.108;3.074;2023-05-10T06:03:28;9.55;;;2.03;;
48813;SDS011;34634;44.108;3.074;2023-05-10T06:05:54;9.93;;;1.50;;
48813;SDS011;34634;44.108;3.074;2023-05-10T06:08:21;7.47;;;1.65;;
48813;SDS011;34634;44.108;3.074;2023-05-10T06:10:47;6.15;;;1.67;;
48813;SDS011;34634;44.108;3.074;2023-05-10T06:13:14;5.50;;;1.40;;
48813;SDS011;34634;44.108;3.074;2023-05-10T06:15:40;6.55;;;1.58;;
48813;SDS011;34634;44.108;3.074;2023-05-10T06:18:07;8.88;;;1.33;;
48813;SDS011;34634;44.108;3.074;2023-05-10T06:20:33;10.77;;;1.90;;
48813;SDS011;34634;44.108;3.074;2023-05-10T06:22:59;7.78;;;1.70;;
48813;SDS011;34634;44.108;3.074;2023-05-10T06:25:26;6.82;;;1.98;;
48813;SDS011;34634;44.108;3.074;2023-05-10T06:27:52;12.88;;;1.70;;
48813;SDS011;34634;44.108;3.074;2023-05-10T06:30:23;6.75;;;1.48;;
48813;SDS011;34634;44.108;3.074;2023-05-10T06:32:52;6.13;;;1.55;;
48813;SDS011;34634;44.108;3.074;2023-05-10T06:35:19;9.18;;;1.23;;
48813;SDS011;34634;44.108;3.074;2023-05-10T06:37:45;5.95;;;1.65;;
48813;SDS011;34634;44.108;3.074;2023-05-10T06:40:12;6.57;;;1.20;;
48813;SDS011;34634;44.108;3.074;2023-05-10T06:42:38;7.00;;;1.40;;
48813;SDS011;34634;44.108;3.074;2023-05-10T06:45:04;8.23;;;1.70;;
48813;SDS011;34634;44.108;3.074;2023-05-10T06:47:31;8.25;;;1.55;;
48813;SDS011;34634;44.108;3.074;2023-05-10T06:49:57;13.45;;;1.80;;
48813;SDS011;34634;44.108;3.074;2023-05-10T06:52:23;7.60;;;1.75;;
48813;SDS011;34634;44.108;3.074;2023-05-10T06:54:50;7.07;;;1.75;;
48813;SDS011;34634;44.108;3.074;2023-05-10T06:57:16;6.70;;;1.40;;
48813;SDS011;34634;44.108;3.074;2023-05-10T06:59:43;8.48;;;1.70;;
48813;SDS011;34634;44.108;3.074;2023-05-10T07:02:09;8.32;;;1.40;;
48813;SDS011;34634;44.108;3.074;2023-05-10T07:04:36;10.63;;;2.00;;
48813;SDS011;34634;44.108;3.074;2023-05-10T07:07:02;10.48;;;1.77;;
48813;SDS011;34634;44.108;3.074;2023-05-10T07:09:28;8.23;;;1.50;;
48813;SDS011;34634;44.108;3.074;2023-05-10T07:11:55;9.48;;;2.13;;
48813;SDS011;34634;44.108;3.074;2023-05-10T07:14:22;12.90;;;1.90;;
48813;SDS011;34634;44.108;3.074;2023-05-10T07:16:49;9.68;;;2.17;;
48813;SDS011;34634;44.108;3.074;2023-05-10T07:19:15;9.30;;;1.67;;
48813;SDS011;34634;44.108;3.074;2023-05-10T07:21:41;8.57;;;1.52;;
48813;SDS011;34634;44.108;3.074;2023-05-10T07:24:08;7.53;;;1.90;;
48813;SDS011;34634;44.108;3.074;2023-05-10T07:26:35;7.32;;;1.55;;
48813;SDS011;34634;44.108;3.074;2023-05-10T07:29:02;8.45;;;1.50;;
48813;SDS011;34634;44.108;3.074;2023-05-10T07:31:28;11.43;;;2.08;;
48813;SDS011;34634;44.108;3.074;2023-05-10T07:33:55;6.57;;;1.85;;
48813;SDS011;34634;44.108;3.074;2023-05-10T07:36:22;8.95;;;1.75;;
48813;SDS011;34634;44.108;3.074;2023-05-10T07:38:48;15.10;;;4.80;;
48813;SDS011;34634;44.108;3.074;2023-05-10T07:41:14;10.60;;;1.75;;
48813;SDS011;34634;44.108;3.074;2023-05-10T07:43:41;7.78;;;1.92;;
48813;SDS011;34634;44.108;3.074;2023-05-10T07:46:07;10.15;;;1.95;;
48813;SDS011;34634;44.108;3.074;2023-05-10T07:48:36;11.35;;;2.10;;
48813;SDS011;34634;44.108;3.074;2023-05-10T07:51:03;12.52;;;2.05;;
48813;SDS011;34634;44.108;3.074;2023-05-10T07:53:29;6.05;;;1.75;;
48813;SDS011;34634;44.108;3.074;2023-05-10T07:55:58;13.55;;;1.73;;
48813;SDS011;34634;44.108;3.074;2023-05-10T07:58:25;7.70;;;1.80;;
48813;SDS011;34634;44.108;3.074;2023-05-10T08:00:52;13.68;;;1.88;;
48813;SDS011;34634;44.108;3.074;2023-05-10T08:03:18;8.95;;;1.95;;
48813;SDS011;34634;44.108;3.074;2023-05-10T08:05:44;8.55;;;1.45;;
48813;SDS011;34634;44.108;3.074;2023-05-10T08:08:11;11.85;;;1.55;;
48813;SDS011;34634;44.108;3.074;2023-05-10T08:10:37;9.32;;;1.42;;
48813;SDS011;34634;44.108;3.074;2023-05-10T08:13:04;17.95;;;1.90;;
48813;SDS011;34634;44.108;3.074;2023-05-10T08:15:30;28.25;;;3.55;;
48813;SDS011;34634;44.108;3.074;2023-05-10T08:17:56;8.90;;;1.75;;
48813;SDS011;34634;44.108;3.074;2023-05-10T08:20:23;6.05;;;1.60;;
48813;SDS011;34634;44.108;3.074;2023-05-10T08:22:49;10.65;;;2.03;;
48813;SDS011;34634;44.108;3.074;2023-05-10T08:25:15;9.75;;;1.90;;
48813;SDS011;34634;44.108;3.074;2023-05-10T08:27:42;6.13;;;1.65;;
48813;SDS011;34634;44.108;3.074;2023-05-10T08:30:08;7.20;;;1.52;;
48813;SDS011;34634;44.108;3.074;2023-05-10T08:32:35;5.07;;;1.30;;
48813;SDS011;34634;44.108;3.074;2023-05-10T08:35:03;4.40;;;1.08;;
48813;SDS011;34634;44.108;3.074;2023-05-10T08:37:30;5.47;;;1.55;;
48813;SDS011;34634;44.108;3.074;2023-05-10T08:39:57;6.93;;;1.33;;
48813;SDS011;34634;44.108;3.074;2023-05-10T08:42:23;6.57;;;1.27;;
48813;SDS011;34634;44.108;3.074;2023-05-10T08:44:51;4.32;;;1.27;;
48813;SDS011;34634;44.108;3.074;2023-05-10T08:47:18;9.38;;;1.90;;
48813;SDS011;34634;44.108;3.074;2023-05-10T08:49:45;5.72;;;1.50;;
48813;SDS011;34634;44.108;3.074;2023-05-10T08:52:16;5.47;;;1.52;;
48813;SDS011;34634;44.108;3.074;2023-05-10T08:54:43;5.03;;;1.40;;
48813;SDS011;34634;44.108;3.074;2023-05-10T08:57:10;3.63;;;1.33;;
48813;SDS011;34634;44.108;3.074;2023-05-10T08:59:36;6.18;;;1.50;;
48813;SDS011;34634;44.108;3.074;2023-05-10T09:02:04;6.65;;;1.50;;
48813;SDS011;34634;44.108;3.074;2023-05-10T09:04:31;4.63;;;1.40;;
48813;SDS011;34634;44.108;3.074;2023-05-10T09:06:57;7.45;;;1.25;;
48813;SDS011;34634;44.108;3.074;2023-05-10T09:09:23;4.95;;;1.23;;
48813;SDS011;34634;44.108;3.074;2023-05-10T09:11:51;5.82;;;1.20;;
48813;SDS011;34634;44.108;3.074;2023-05-10T09:14:17;4.35;;;1.05;;
48813;SDS011;34634;44.108;3.074;2023-05-10T09:16:44;4.30;;;1.38;;
48813;SDS011;34634;44.108;3.074;2023-05-10T09:19:11;6.30;;;1.30;;
48813;SDS011;34634;44.108;3.074;2023-05-10T09:21:37;4.65;;;1.70;;
48813;SDS011;34634;44.108;3.074;2023-05-10T09:24:04;4.65;;;1.50;;
48813;SDS011;34634;44.108;3.074;2023-05-10T09:26:30;4.65;;;1.83;;
48813;SDS011;34634;44.108;3.074;2023-05-10T09:28:57;5.68;;;1.70;;
48813;SDS011;34634;44.108;3.074;2023-05-10T09:31:43;3.67;;;1.95;;
48813;SDS011;34634;44.108;3.074;2023-05-10T09:34:11;6.75;;;1.60;;
48813;SDS011;34634;44.108;3.074;2023-05-10T09:36:51;5.53;;;1.30;;
48813;SDS011;34634;44.108;3.074;2023-05-10T09:39:18;4.78;;;1.33;;
48813;SDS011;34634;44.108;3.074;2023-05-10T09:41:44;5.28;;;1.42;;
48813;SDS011;34634;44.108;3.074;2023-05-10T09:44:11;7.00;;;1.70;;
48813;SDS011;34634;44.108;3.074;2023-05-10T09:46:37;3.15;;;1.25;;
48813;SDS011;34634;44.108;3.074;2023-05-10T09:49:04;6.15;;;1.70;;
48813;SDS011;34634;44.108;3.074;2023-05-10T09:51:31;4.82;;;1.60;;
48813;SDS011;34634;44.108;3.074;2023-05-10T09:56:37;7.20;;;1.35;;
48813;SDS011;34634;44.108;3.074;2023-05-10T09:59:05;9.60;;;1.67;;
48813;SDS011;34634;44.108;3.074;2023-05-10T10:01:32;5.05;;;1.50;;
48813;SDS011;34634;44.108;3.074;2023-05-10T10:03:58;6.57;;;1.80;;
48813;SDS011;34634;44.108;3.074;2023-05-10T10:06:25;9.55;;;1.73;;
48813;SDS011;34634;44.108;3.074;2023-05-10T10:08:51;7.28;;;1.75;;
48813;SDS011;34634;44.108;3.074;2023-05-10T10:11:19;5.22;;;1.58;;
48813;SDS011;34634;44.108;3.074;2023-05-10T10:13:45;9.05;;;1.55;;
48813;SDS011;34634;44.108;3.074;2023-05-10T10:16:11;7.20;;;1.60;;
48813;SDS011;34634;44.108;3.074;2023-05-10T10:18:38;6.80;;;1.55;;
48813;SDS011;34634;44.108;3.074;2023-05-10T10:21:05;7.95;;;1.70;;
48813;SDS011;34634;44.108;3.074;2023-05-10T10:23:36;6.22;;;1.63;;
48813;SDS011;34634;44.108;3.074;2023-05-10T10:26:05;8.20;;;1.80;;
48813;SDS011;34634;44.108;3.074;2023-05-10T10:28:48;8.02;;;2.00;;
48813;SDS011;34634;44.108;3.074;2023-05-10T10:31:27;4.28;;;1.52;;
48813;SDS011;34634;44.108;3.074;2023-05-10T10:34:05;6.28;;;1.80;;
48813;SDS011;34634;44.108;3.074;2023-05-10T10:36:42;4.90;;;1.48;;
48813;SDS011;34634;44.108;3.074;2023-05-10T10:39:09;6.32;;;1.50;;
48813;SDS011;34634;44.108;3.074;2023-05-10T10:41:38;7.30;;;1.50;;
48813;SDS011;34634;44.108;3.074;2023-05-10T10:49:23;8.95;;;1.58;;
48813;SDS011;34634;44.108;3.074;2023-05-10T10:54:35;4.18;;;2.00;;
48813;SDS011;34634;44.108;3.074;2023-05-10T10:57:11;4.60;;;1.38;;
48813;SDS011;34634;44.108;3.074;2023-05-10T10:59:42;6.00;;;1.65;;
48813;SDS011;34634;44.108;3.074;2023-05-10T11:02:32;7.38;;;1.70;;
48813;SDS011;34634;44.108;3.074;2023-05-10T11:04:58;6.50;;;1.40;;
48813;SDS011;34634;44.108;3.074;2023-05-10T11:07:24;4.35;;;1.33;;
48813;SDS011;34634;44.108;3.074;2023-05-10T11:09:50;6.72;;;1.40;;
48813;SDS011;34634;44.108;3.074;2023-05-10T11:12:17;5.00;;;1.60;;
48813;SDS011;34634;44.108;3.074;2023-05-10T11:14:43;4.45;;;1.63;;
48813;SDS011;34634;44.108;3.074;2023-05-10T11:17:22;6.35;;;1.90;;
48813;SDS011;34634;44.108;3.074;2023-05-10T11:20:07;6.03;;;1.90;;
48813;SDS011;34634;44.108;3.074;2023-05-10T11:22:53;5.57;;;1.95;;
48813;SDS011;34634;44.108;3.074;2023-05-10T11:25:23;4.57;;;1.80;;
48813;SDS011;34634;44.108;3.074;2023-05-10T11:27:52;3.40;;;1.20;;
48813;SDS011;34634;44.108;3.074;2023-05-10T11:30:18;4.57;;;1.50;;
48813;SDS011;34634;44.108;3.074;2023-05-10T11:32:45;4.97;;;1.60;;
48813;SDS011;34634;44.108;3.074;2023-05-10T11:35:11;4.43;;;1.50;;
48813;SDS011;34634;44.108;3.074;2023-05-10T11:37:38;4.18;;;1.75;;
48813;SDS011;34634;44.108;3.074;2023-05-10T11:42:40;6.50;;;1.40;;
48813;SDS011;34634;44.108;3.074;2023-05-10T11:45:06;7.53;;;1.83;;
48813;SDS011;34634;44.108;3.074;2023-05-10T11:47:33;6.90;;;1.50;;
48813;SDS011;34634;44.108;3.074;2023-05-10T11:50:01;4.13;;;1.58;;
48813;SDS011;34634;44.108;3.074;2023-05-10T11:52:27;3.28;;;1.23;;
48813;SDS011;34634;44.108;3.074;2023-05-10T11:54:54;2.30;;;1.10;;
48813;SDS011;34634;44.108;3.074;2023-05-10T11:57:25;6.35;;;1.63;;
48813;SDS011;34634;44.108;3.074;2023-05-10T11:59:54;2.90;;;1.00;;
48813;SDS011;34634;44.108;3.074;2023-05-10T12:02:20;2.80;;;1.02;;
48813;SDS011;34634;44.108;3.074;2023-05-10T12:04:47;2.38;;;1.00;;
48813;SDS011;34634;44.108;3.074;2023-05-10T12:07:13;1.92;;;0.80;;
48813;SDS011;34634;44.108;3.074;2023-05-10T12:09:43;4.22;;;1.35;;
48813;SDS011;34634;44.108;3.074;2023-05-10T12:12:15;4.72;;;1.45;;
48813;SDS011;34634;44.108;3.074;2023-05-10T12:14:42;5.03;;;1.17;;
48813;SDS011;34634;44.108;3.074;2023-05-10T12:17:11;5.63;;;1.50;;
48813;SDS011;34634;44.108;3.074;2023-05-10T12:19:38;2.50;;;1.37;;
48813;SDS011;34634;44.108;3.074;2023-05-10T12:22:05;9.20;;;1.33;;
48813;SDS011;34634;44.108;3.074;2023-05-10T12:24:34;2.45;;;1.10;;
48813;SDS011;34634;44.108;3.074;2023-05-10T12:27:04;2.55;;;1.02;;
48813;SDS011;34634;44.108;3.074;2023-05-10T12:29:31;2.97;;;1.27;;
48813;SDS011;34634;44.108;3.074;2023-05-10T12:31:58;3.83;;;1.30;;
48813;SDS011;34634;44.108;3.074;2023-05-10T12:34:34;2.67;;;1.02;;
48813;SDS011;34634;44.108;3.074;2023-05-10T12:37:04;3.92;;;1.42;;
48813;SDS011;34634;44.108;3.074;2023-05-10T12:39:40;5.03;;;1.60;;
48813;SDS011;34634;44.108;3.074;2023-05-10T12:42:06;2.20;;;0.90;;
48813;SDS011;34634;44.108;3.074;2023-05-10T12:44:33;4.07;;;1.25;;
48813;SDS011;34634;44.108;3.074;2023-05-10T12:46:59;3.03;;;0.90;;
48813;SDS011;34634;44.108;3.074;2023-05-10T12:49:25;2.45;;;1.00;;
48813;SDS011;34634;44.108;3.074;2023-05-10T12:51:52;2.58;;;0.85;;
48813;SDS011;34634;44.108;3.074;2023-05-10T12:54:18;3.72;;;1.00;;
48813;SDS011;34634;44.108;3.074;2023-05-10T12:56:44;1.55;;;0.80;;
48813;SDS011;34634;44.108;3.074;2023-05-10T12:59:11;2.28;;;0.80;;
48813;SDS011;34634;44.108;3.074;2023-05-10T13:01:37;1.63;;;0.80;;
48813;SDS011;34634;44.108;3.074;2023-05-10T13:04:04;2.35;;;0.90;;
48813;SDS011;34634;44.108;3.074;2023-05-10T13:06:30;6.10;;;1.10;;
48813;SDS011;34634;44.108;3.074;2023-05-10T13:08:57;3.10;;;1.00;;
48813;SDS011;34634;44.108;3.074;2023-05-10T13:11:23;4.47;;;1.33;;
48813;SDS011;34634;44.108;3.074;2023-05-10T13:13:50;3.42;;;0.90;;
48813;SDS011;34634;44.108;3.074;2023-05-10T13:16:17;3.67;;;0.70;;
48813;SDS011;34634;44.108;3.074;2023-05-10T13:18:43;4.65;;;1.05;;
48813;SDS011;34634;44.108;3.074;2023-05-10T13:21:09;3.30;;;1.05;;
48813;SDS011;34634;44.108;3.074;2023-05-10T13:23:36;3.20;;;1.20;;
48813;SDS011;34634;44.108;3.074;2023-05-10T13:26:02;1.77;;;0.98;;
48813;SDS011;34634;44.108;3.074;2023-05-10T13:28:29;2.65;;;1.00;;
48813;SDS011;34634;44.108;3.074;2023-05-10T13:30:55;1.75;;;0.90;;
48813;SDS011;34634;44.108;3.074;2023-05-10T13:33:21;3.72;;;1.10;;
48813;SDS011;34634;44.108;3.074;2023-05-10T13:35:48;5.30;;;1.05;;
48813;SDS011;34634;44.108;3.074;2023-05-10T13:38:15;2.28;;;0.90;;
48813;SDS011;34634;44.108;3.074;2023-05-10T13:40:41;1.88;;;0.95;;
48813;SDS011;34634;44.108;3.074;2023-05-10T13:43:07;3.53;;;1.30;;
48813;SDS011;34634;44.108;3.074;2023-05-10T13:45:33;3.83;;;0.90;;
48813;SDS011;34634;44.108;3.074;2023-05-10T13:48:00;3.15;;;1.00;;
48813;SDS011;34634;44.108;3.074;2023-05-10T13:50:26;6.65;;;1.33;;
48813;SDS011;34634;44.108;3.074;2023-05-10T13:52:52;2.65;;;1.20;;
48813;SDS011;34634;44.108;3.074;2023-05-10T13:55:19;7.07;;;1.20;;
48813;SDS011;34634;44.108;3.074;2023-05-10T13:57:45;3.50;;;1.25;;
48813;SDS011;34634;44.108;3.074;2023-05-10T14:00:12;4.97;;;1.08;;
48813;SDS011;34634;44.108;3.074;2023-05-10T14:02:38;1.88;;;0.75;;
48813;SDS011;34634;44.108;3.074;2023-05-10T14:05:05;4.15;;;1.20;;
48813;SDS011;34634;44.108;3.074;2023-05-10T14:07:32;3.20;;;0.80;;
48813;SDS011;34634;44.108;3.074;2023-05-10T14:09:58;2.38;;;0.70;;
48813;SDS011;34634;44.108;3.074;2023-05-10T14:12:25;2.28;;;0.80;;
48813;SDS011;34634;44.108;3.074;2023-05-10T14:14:51;2.63;;;0.57;;
48813;SDS011;34634;44.108;3.074;2023-05-10T14:17:17;2.55;;;0.82;;
48813;SDS011;34634;44.108;3.074;2023-05-10T14:19:44;2.75;;;0.90;;
48813;SDS011;34634;44.108;3.074;2023-05-10T14:22:10;5.53;;;0.90;;
48813;SDS011;34634;44.108;3.074;2023-05-10T14:24:37;3.60;;;0.90;;
48813;SDS011;34634;44.108;3.074;2023-05-10T14:27:04;3.78;;;1.00;;
48813;SDS011;34634;44.108;3.074;2023-05-10T14:29:31;6.50;;;1.48;;
48813;SDS011;34634;44.108;3.074;2023-05-10T14:31:58;3.40;;;1.33;;
48813;SDS011;34634;44.108;3.074;2023-05-10T14:34:24;3.13;;;1.23;;
48813;SDS011;34634;44.108;3.074;2023-05-10T14:36:50;5.28;;;1.00;;
48813;SDS011;34634;44.108;3.074;2023-05-10T14:39:17;3.25;;;1.10;;
48813;SDS011;34634;44.108;3.074;2023-05-10T14:41:43;3.05;;;1.13;;
48813;SDS011;34634;44.108;3.074;2023-05-10T14:44:11;3.10;;;0.82;;
48813;SDS011;34634;44.108;3.074;2023-05-10T14:46:37;4.03;;;1.27;;
48813;SDS011;34634;44.108;3.074;2023-05-10T14:49:04;4.53;;;1.20;;
48813;SDS011;34634;44.108;3.074;2023-05-10T14:51:31;3.78;;;1.25;;
48813;SDS011;34634;44.108;3.074;2023-05-10T14:53:57;5.18;;;1.30;;
48813;SDS011;34634;44.108;3.074;2023-05-10T14:56:24;3.90;;;1.05;;
48813;SDS011;34634;44.108;3.074;2023-05-10T14:58:51;5.20;;;0.98;;
48813;SDS011;34634;44.108;3.074;2023-05-10T15:01:17;2.15;;;0.80;;
48813;SDS011;34634;44.108;3.074;2023-05-10T15:03:44;5.22;;;1.27;;
48813;SDS011;34634;44.108;3.074;2023-05-10T15:06:10;2.08;;;0.70;;
48813;SDS011;34634;44.108;3.074;2023-05-10T15:08:37;3.53;;;0.77;;
48813;SDS011;34634;44.108;3.074;2023-05-10T15:11:03;3.03;;;0.70;;
48813;SDS011;34634;44.108;3.074;2023-05-10T15:13:29;2.47;;;0.80;;
48813;SDS011;34634;44.108;3.074;2023-05-10T15:15:56;2.58;;;0.80;;